LIPELIPZ

Guest
Details From LIPE - BOLOGNA
To LIPZ - Venezia Tessera
Flight Number -
Tags decoded
Created
Modified
Stats Distance 87 nm / 162 km
Max Altitude 0 ft / 0 m
Waypoints 5
Social Downloads 3
Likes 0
Share VATSIM

Download

Looking for another format? Having issues loading an existing format? Contact us
Advertisement - Login to hide

Notes

Requested: LIPE LUMAV M859 ROVIG M859 CHI LAREN LIPZ Unmatched points: LUMAV M859

Route

LIPE ROVIG M859 CHI LAREN LIPZ

ID Type Via Altitude Latitude Longitude Leg Dist Tot Dist Heading (true) Name
O LIPE APT - 0 ft / 0 m 44.53545˚ 11.28866˚ - 0 nm - BOLOGNA
ROVIG FIX - 0 ft / 0 m 44.92389˚ 11.89750˚ 34 nm 34 nm 48° / 48° -
CHI NDB M859 (AWY-LO) 0 ft / 0 m 45.07167˚ 12.28139˚ 18 nm 53 nm 61° / 62° CHIOGGIA NDB
LAREN FIX - 0 ft / 0 m 45.27806˚ 12.06167˚ 15 nm 68 nm 323° / 323° -
O LIPZ APT - 0 ft / 0 m 45.50479˚ 12.34969˚ 18 nm 87 nm 42° / 42° Venezia Tessera

Altitude Profile

Advertisement - Login to hide

LIPE

Details ICAO LIPE (BLQ)
Name BOLOGNA
Region Italy
Timezone Europe/Rome (UTC+1.0)
Stats Elevation 123 ft / 37 m (AMSL)
Location 44.535446° 11.288662°
Runways 1
Magnetic Variation 2.918° E

METAR

LIPE 161220Z 32004KT 290V360 9999 FEW003 BKN010 05/04 Q1008

Decode

TAF

TAF LIPE 161100Z 1612/1712 VRB05KT 6000 SCT020 BECMG 1612/1614 30010KT TEMPO 1612/1616 2000 SHRA TEMPO 1622/1708 2000 BR

Decode

Departure Runways

ID Width Length Bearing (true) Bearing (mag) Surface Threshold Offset Overrun Length
12 148 ft / 45 m 9,185 ft / 2,800 m 116.78° 113.86° Asphalt 1,007 ft / 307 m 0 ft / 0 m
30 148 ft / 45 m 9,185 ft / 2,800 m 296.81° 293.89° Asphalt 1,188 ft / 362 m 200 ft / 61 m

LIPZ

Details ICAO LIPZ (VCE)
Name Venezia Tessera
Region Italy
Timezone Europe/Rome (UTC+1.0)
Stats Elevation 7 ft / 2 m (AMSL)
Location 45.504791° 12.349691°
Runways 2
Magnetic Variation 3.180° E

METAR

LIPZ 161220Z 01007KT 340V040 CAVOK 07/03 Q1008 NOSIG

Decode

TAF

TAF LIPZ 161100Z 1612/1718 01010KT 7000 SCT060 BECMG 1700/1702 VRB05KT TEMPO 1702/1707 2000 BR

Decode

Destination Runways

ID Width Length Bearing (true) Bearing (mag) Surface Threshold Offset Overrun Length
04L 148 ft / 45 m 9,112 ft / 2,777 m 42.01° 38.83° Asphalt 312 ft / 95 m 0 ft / 0 m
04R 148 ft / 45 m 10,834 ft / 3,302 m 41.99° 38.81° Asphalt 0 ft / 0 m 0 ft / 0 m
22L 148 ft / 45 m 10,834 ft / 3,302 m 222.01° 218.83° Asphalt 0 ft / 0 m 0 ft / 0 m
22R 148 ft / 45 m 9,112 ft / 2,777 m 222.02° 218.84° Asphalt 0 ft / 0 m 0 ft / 0 m

Approach Navaids

Runway Type Ident Frequency Range Bearing (true) Bearing (mag) Slope Elevation
04R Localiser VTS 109.95 MHz 18 nm / 33 km 42.02° 38.84° - 13 ft / 4 m (AMSL)
04R Glidescope VTS 109.95 MHz 10 nm / 19 km 42.00° 38.82° 3.00° 52 ft / 16 m (AMSL)
04R DME VTS 109.95 MHz 18 nm / 33 km - - - 26 ft / 8 m (AMSL)

Popular Alternatives